createdAt,value
2023-02-09T00:00:39.849Z,102049.09
2023-02-09T00:01:41.374Z,102045.47
2023-02-09T00:02:42.951Z,102050.13
2023-02-09T00:03:44.571Z,102036.53
2023-02-09T00:04:46.069Z,102047.72
2023-02-09T00:05:47.562Z,102046.69
2023-02-09T00:06:49.064Z,102049.63
2023-02-09T00:07:50.720Z,102049.13
2023-02-09T00:08:52.329Z,102045.66
2023-02-09T00:09:53.827Z,102047.72
2023-02-09T00:10:55.326Z,102043.63
2023-02-09T00:12:15.423Z,102046.38
2023-02-09T00:13:25.682Z,102053.97
2023-02-09T00:14:27.200Z,102047.06
2023-02-09T00:15:28.681Z,102048.25
2023-02-09T00:16:30.298Z,102045.00
2023-02-09T00:17:35.853Z,102045.88
2023-02-09T00:18:37.377Z,102045.19
2023-02-09T00:19:38.912Z,102054.66
2023-02-09T00:20:40.395Z,102053.44
2023-02-09T00:21:41.894Z,102058.44
2023-02-09T00:22:43.391Z,102056.03
2023-02-09T00:23:44.842Z,102050.72
2023-02-09T00:24:46.378Z,102057.09
2023-02-09T00:25:47.833Z,102057.94
2023-02-09T00:26:49.338Z,102049.69
2023-02-09T00:27:51.663Z,102041.41
2023-02-09T00:28:53.140Z,102047.06
2023-02-09T00:29:55.220Z,102049.34
2023-02-09T00:30:56.774Z,102042.25
2023-02-09T00:31:58.268Z,102044.81
2023-02-09T00:32:59.866Z,102047.75
2023-02-09T00:34:01.483Z,102045.84
2023-02-09T00:35:03.212Z,102046.03
2023-02-09T00:36:07.854Z,102043.09
2023-02-09T00:37:09.627Z,102042.25
2023-02-09T00:38:11.372Z,102054.47
2023-02-09T00:39:12.881Z,102038.81
2023-02-09T00:40:14.413Z,102033.28
2023-02-09T00:41:15.901Z,102038.97
2023-02-09T00:42:18.183Z,102034.50
2023-02-09T00:43:19.649Z,102039.16
2023-02-09T00:44:21.147Z,102034.69
2023-02-09T00:45:22.713Z,102041.06
2023-02-09T00:46:24.160Z,102029.69
2023-02-09T00:47:25.786Z,102037.06
2023-02-09T00:48:27.411Z,102036.22
2023-02-09T00:49:29.049Z,102038.09
2023-02-09T00:50:30.528Z,102032.78
2023-02-09T00:51:31.988Z,102034.66
2023-02-09T00:52:33.449Z,102032.94
2023-02-09T00:53:34.967Z,102026.56
2023-02-09T00:54:36.554Z,102033.13
2023-02-09T00:55:38.044Z,102031.56
2023-02-09T00:56:40.995Z,102032.78
2023-02-09T00:57:42.474Z,102026.41
2023-02-09T00:58:43.978Z,102030.34
2023-02-09T00:59:45.652Z,102026.72
2023-02-09T01:00:48.463Z,102033.28
2023-02-09T01:01:50.051Z,102028.63
2023-02-09T01:02:51.613Z,102029.47
2023-02-09T01:03:53.134Z,102021.22
2023-02-09T01:04:55.132Z,102030.88
2023-02-09T01:05:58.272Z,102027.06
2023-02-09T01:06:59.808Z,102025.34
2023-02-09T01:08:01.275Z,102025.53
2023-02-09T01:09:02.884Z,102020.19
2023-02-09T01:10:04.506Z,102028.47
2023-02-09T01:11:09.450Z,102020.53
2023-02-09T01:12:10.941Z,102023.97
2023-02-09T01:13:12.737Z,102031.56
2023-02-09T01:14:14.253Z,102022.44
2023-02-09T01:15:15.819Z,102030.69
2023-02-09T01:16:18.840Z,102033.59
2023-02-09T01:17:20.443Z,102030.16
2023-02-09T01:18:21.942Z,102021.91
2023-02-09T01:19:23.464Z,102026.72
2023-02-09T01:20:24.933Z,102036.34
2023-02-09T01:21:26.484Z,102031.88
2023-02-09T01:22:27.960Z,102034.25
2023-02-09T01:23:29.468Z,102035.63
2023-02-09T01:24:31.052Z,102040.41
2023-02-09T01:25:32.557Z,102035.44
2023-02-09T01:26:34.084Z,102030.97
2023-02-09T01:27:35.637Z,102013.88
2023-02-09T01:28:37.171Z,102031.13
2023-02-09T01:29:39.227Z,102025.63
2023-02-09T01:30:40.982Z,102024.59
2023-02-09T01:31:42.772Z,102030.97
2023-02-09T01:32:44.405Z,102027.34
2023-02-09T01:33:45.890Z,102017.69
2023-02-09T01:34:50.254Z,102020.25
2023-02-09T01:36:03.246Z,102020.25
2023-02-09T01:37:04.787Z,102013.88
2023-02-09T01:38:06.276Z,102010.44
2023-02-09T01:39:07.794Z,102012.50
2023-02-09T01:40:09.786Z,102015.09
2023-02-09T01:41:11.411Z,102015.09
2023-02-09T01:42:14.770Z,102014.22
2023-02-09T01:43:16.486Z,102014.22
2023-02-09T01:44:17.983Z,102007.00
2023-02-09T01:45:21.463Z,102010.78
2023-02-09T01:46:24.718Z,102012.16
2023-02-09T01:47:26.189Z,102004.22
2023-02-09T01:48:28.587Z,102007.47
2023-02-09T01:49:30.812Z,102009.22
2023-02-09T01:50:37.669Z,102004.56
2023-02-09T01:51:43.674Z,101995.28
2023-02-09T01:52:45.146Z,102013.50
2023-02-09T01:53:46.830Z,102007.31
2023-02-09T01:54:49.605Z,102011.09
2023-02-09T01:55:55.320Z,102011.25
2023-02-09T01:56:58.837Z,102004.91
2023-02-09T01:58:04.093Z,101998.38
2023-02-09T01:59:05.569Z,101999.56
2023-02-09T02:00:17.278Z,101992.84
2023-02-09T02:01:19.321Z,101990.81
2023-02-09T02:02:21.404Z,101996.31
2023-02-09T02:03:24.319Z,101976.31
2023-02-09T02:04:25.880Z,101987.03
2023-02-09T02:05:27.423Z,101982.38
2023-02-09T02:06:28.877Z,101982.56
2023-02-09T02:07:33.054Z,101987.31
2023-02-09T02:08:54.763Z,101989.38
2023-02-09T02:09:56.235Z,101987.66
2023-02-09T02:10:57.807Z,101979.59
2023-02-09T02:11:59.296Z,101993.50
2023-02-09T02:13:00.760Z,101982.50
2023-02-09T02:14:02.338Z,101978.03
2023-02-09T02:15:03.949Z,101981.81
2023-02-09T02:16:11.170Z,101991.97
2023-02-09T02:17:12.733Z,101984.56
2023-02-09T02:18:17.014Z,101981.81
2023-02-09T02:19:31.462Z,101979.06
2023-02-09T02:20:51.452Z,101982.00
2023-02-09T02:22:11.875Z,101985.91
2023-02-09T02:23:19.567Z,101978.00
2023-02-09T02:24:40.044Z,101978.00
2023-02-09T02:25:50.944Z,101971.97
2023-02-09T02:26:56.639Z,101979.53
2023-02-09T02:28:17.384Z,101982.44
2023-02-09T02:29:30.763Z,101979.69
2023-02-09T02:30:38.571Z,101981.03
2023-02-09T02:31:40.130Z,101974.69
2023-02-09T02:32:47.321Z,101971.94
2023-02-09T02:33:52.292Z,101969.34
2023-02-09T02:35:01.776Z,101975.19
2023-02-09T02:36:03.250Z,101967.44
2023-02-09T02:37:04.704Z,101964.47
2023-02-09T02:38:11.822Z,101966.19
2023-02-09T02:39:18.659Z,101968.94
2023-02-09T02:40:20.229Z,101968.25
2023-02-09T02:41:51.005Z,101965.50
2023-02-09T02:42:52.883Z,101968.09
2023-02-09T02:44:08.328Z,101962.75
2023-02-09T02:45:22.072Z,101961.91
2023-02-09T02:46:38.399Z,101958.13
2023-02-09T02:47:40.573Z,101950.03
2023-02-09T02:48:44.894Z,101957.41
2023-02-09T02:49:46.375Z,101952.97
2023-02-09T02:50:50.581Z,101947.28
2023-02-09T02:51:52.892Z,101950.38
2023-02-09T02:52:56.575Z,101956.03
2023-02-09T02:53:58.448Z,101945.91
2023-02-09T02:55:04.230Z,101949.69
2023-02-09T02:56:07.500Z,101945.19
2023-02-09T02:57:10.308Z,101939.00
2023-02-09T02:58:11.957Z,101935.56
2023-02-09T02:59:14.613Z,101940.03
2023-02-09T03:00:25.711Z,101938.13
2023-02-09T03:01:30.086Z,101941.75
2023-02-09T03:02:33.637Z,101939.00
2023-02-09T03:03:35.198Z,101948.09
2023-02-09T03:04:36.762Z,101942.78
2023-02-09T03:05:38.354Z,101944.81
2023-02-09T03:06:39.890Z,101936.59
2023-02-09T03:07:41.407Z,101944.81
2023-02-09T03:08:52.032Z,101947.56
2023-02-09T03:09:54.314Z,101943.97
2023-02-09T03:10:55.789Z,101946.19
2023-02-09T03:11:57.749Z,101940.13
2023-02-09T03:13:03.469Z,101940.81
2023-02-09T03:14:16.917Z,101941.13
2023-02-09T03:15:19.821Z,101945.78
2023-02-09T03:16:29.303Z,101952.13
2023-02-09T03:17:30.775Z,101949.53
2023-02-09T03:18:32.223Z,101954.00
2023-02-09T03:19:42.852Z,101955.91
2023-02-09T03:20:57.246Z,101949.22
2023-02-09T03:22:21.731Z,101953.16
2023-02-09T03:23:26.131Z,101964.59
2023-02-09T03:25:00.161Z,101956.16
2023-02-09T03:26:03.825Z,101949.66
2023-02-09T03:27:10.165Z,101948.78
2023-02-09T03:28:24.912Z,101956.34
2023-02-09T03:29:26.604Z,101943.63
2023-02-09T03:30:28.135Z,101954.63
2023-02-09T03:31:29.706Z,101954.63
2023-02-09T03:32:31.489Z,101948.25
2023-02-09T03:33:33.338Z,101949.97
2023-02-09T03:34:34.936Z,101949.81
2023-02-09T03:35:37.549Z,101949.81
2023-02-09T03:36:39.016Z,101951.69
2023-02-09T03:37:40.509Z,101952.56
2023-02-09T03:38:41.960Z,101958.06
2023-02-09T03:39:43.470Z,101964.56
2023-02-09T03:40:45.229Z,101965.72
2023-02-09T03:41:46.840Z,101961.09
2023-02-09T03:42:48.469Z,101970.38
2023-02-09T03:44:08.508Z,101960.25
2023-02-09T03:45:10.048Z,101961.09
2023-02-09T03:46:11.537Z,101963.84
2023-02-09T03:47:13.013Z,101963.84
2023-02-09T03:48:14.479Z,101960.41
2023-02-09T03:49:15.980Z,101964.88
2023-02-09T03:50:17.564Z,101959.72
2023-02-09T03:51:19.025Z,101957.81
2023-02-09T03:52:20.502Z,101960.75
2023-02-09T03:53:21.966Z,101958.00
2023-02-09T03:54:23.518Z,101964.50
2023-02-09T03:55:25.073Z,101961.94
2023-02-09T03:56:26.562Z,101967.59
2023-02-09T03:57:28.147Z,101970.34
2023-02-09T03:58:29.627Z,101971.34
2023-02-09T03:59:31.177Z,101968.22
2023-02-09T04:00:32.717Z,101964.69
2023-02-09T04:01:34.288Z,101968.34
2023-02-09T04:02:35.826Z,101964.69
2023-02-09T04:03:37.574Z,101968.16
2023-02-09T04:04:39.081Z,101973.66
2023-02-09T04:05:40.561Z,101968.16
2023-02-09T04:06:42.061Z,101961.66
2023-02-09T04:07:43.506Z,101966.28
2023-02-09T04:08:44.993Z,101969.88
2023-02-09T04:09:46.477Z,101965.41
2023-02-09T04:10:48.068Z,101975.38
2023-02-09T04:11:49.707Z,101977.25
2023-02-09T04:12:51.237Z,101973.94
2023-02-09T04:13:52.792Z,101971.38
2023-02-09T04:14:54.284Z,101968.63
2023-02-09T04:15:55.815Z,101963.13
2023-02-09T04:16:57.304Z,101972.41
2023-02-09T04:17:58.782Z,101967.06
2023-02-09T04:19:00.277Z,101972.56
2023-02-09T04:20:02.020Z,101972.56
2023-02-09T04:21:03.565Z,101976.16
2023-02-09T04:22:05.104Z,101974.28
2023-02-09T04:23:08.862Z,101976.16
2023-02-09T04:24:10.387Z,101984.41
2023-02-09T04:25:11.862Z,101983.53
2023-02-09T04:26:13.423Z,101987.97
2023-02-09T04:27:14.941Z,101979.97
2023-02-09T04:28:16.620Z,101988.09
2023-02-09T04:29:18.125Z,101977.13
2023-02-09T04:30:19.700Z,101985.03
2023-02-09T04:31:21.302Z,101980.25
2023-02-09T04:32:22.865Z,101973.91
2023-02-09T04:33:24.491Z,101977.50
2023-02-09T04:34:26.062Z,101979.09
2023-02-09T04:35:27.556Z,101980.81
2023-02-09T04:36:29.084Z,101986.16
2023-02-09T04:37:30.532Z,101979.63
2023-02-09T04:38:32.069Z,101981.38
2023-02-09T04:39:33.534Z,101979.63
2023-02-09T04:40:35.022Z,101980.50
2023-02-09T04:41:36.468Z,101988.56
2023-02-09T04:42:38.025Z,101983.25
2023-02-09T04:43:39.483Z,101983.56
2023-02-09T04:44:40.984Z,101989.75
2023-02-09T04:45:42.603Z,101988.03
2023-02-09T04:46:45.697Z,101982.53
2023-02-09T04:47:47.310Z,101989.50
2023-02-09T04:48:48.778Z,101987.25
2023-02-09T04:49:50.283Z,101988.09
2023-02-09T04:50:52.022Z,101982.69
2023-02-09T04:51:53.556Z,101989.19
2023-02-09T04:52:55.064Z,101991.78
2023-02-09T04:53:56.520Z,101992.47
2023-02-09T04:54:58.032Z,101984.13
2023-02-09T04:55:59.501Z,101981.22
2023-02-09T04:57:19.736Z,101984.81
2023-02-09T04:58:40.023Z,101991.19
2023-02-09T04:59:41.655Z,101987.41
2023-02-09T05:00:43.290Z,101988.09
2023-02-09T05:01:44.916Z,101990.69
2023-02-09T05:02:46.408Z,101994.28
2023-02-09T05:03:47.934Z,101993.28
2023-02-09T05:04:49.471Z,101991.56
2023-02-09T05:05:50.969Z,101990.53
2023-02-09T05:06:52.482Z,101990.53
2023-02-09T05:07:53.979Z,102001.66
2023-02-09T05:08:55.450Z,101984.34
2023-02-09T05:09:56.970Z,101998.22
2023-02-09T05:10:58.522Z,101992.91
2023-02-09T05:11:59.992Z,101991.00
2023-02-09T05:13:01.479Z,101989.13
2023-02-09T05:14:02.939Z,101994.47
2023-02-09T05:15:04.531Z,101995.31
2023-02-09T05:16:06.820Z,101982.63
2023-02-09T05:17:08.332Z,101988.97
2023-02-09T05:18:10.232Z,101992.56
2023-02-09T05:19:11.716Z,101982.47
2023-02-09T05:20:13.313Z,101982.63
2023-02-09T05:21:14.833Z,101983.47
2023-02-09T05:22:16.314Z,101981.75
2023-02-09T05:23:17.992Z,101988.09
2023-02-09T05:24:19.458Z,101980.03
2023-02-09T05:25:20.958Z,101987.09
2023-02-09T05:26:22.439Z,101989.13
2023-02-09T05:27:23.896Z,101990.84
2023-02-09T05:28:25.549Z,101993.59
2023-02-09T05:29:27.087Z,101991.88
2023-02-09T05:30:28.692Z,101997.69
2023-02-09T05:31:30.254Z,101984.13
2023-02-09T05:32:31.824Z,101994.25
2023-02-09T05:33:33.352Z,101999.72
2023-02-09T05:34:34.966Z,101989.03
2023-02-09T05:35:36.567Z,101987.31
2023-02-09T05:36:38.020Z,101986.47
2023-02-09T05:37:39.522Z,101998.28
2023-02-09T05:38:41.094Z,102002.06
2023-02-09T05:39:42.561Z,101997.44
2023-02-09T05:40:45.205Z,101993.81
2023-02-09T05:42:05.450Z,101992.97
2023-02-09T05:43:06.918Z,101992.09
2023-02-09T05:44:08.533Z,101993.13
2023-02-09T05:45:10.205Z,101995.00
2023-02-09T05:46:11.735Z,101996.88
2023-02-09T05:47:13.746Z,101996.19
2023-02-09T05:48:15.251Z,101996.88
2023-02-09T05:49:16.766Z,102008.19
2023-02-09T05:50:18.330Z,102005.44
2023-02-09T05:51:19.826Z,102002.69
2023-02-09T05:52:21.470Z,102008.19
2023-02-09T05:53:22.954Z,102000.97
2023-02-09T05:54:24.495Z,102008.47
2023-02-09T05:55:26.059Z,102003.72
2023-02-09T05:56:27.543Z,102005.59
2023-02-09T05:57:29.076Z,102006.47
2023-02-09T05:58:30.578Z,101998.34
2023-02-09T05:59:32.141Z,101995.78
2023-02-09T06:00:33.633Z,102000.41
2023-02-09T06:01:35.136Z,101990.44
2023-02-09T06:02:36.678Z,101996.97
2023-02-09T06:03:38.247Z,101994.38
2023-02-09T06:04:39.808Z,102005.34
2023-02-09T06:05:43.921Z,102004.81
2023-02-09T06:06:45.461Z,102002.22
2023-02-09T06:07:46.975Z,101995.13
2023-02-09T06:08:48.517Z,102003.69
2023-02-09T06:09:49.972Z,101986.34
2023-02-09T06:10:51.449Z,101989.09
2023-02-09T06:11:53.029Z,101990.44
2023-02-09T06:12:54.555Z,101988.88
2023-02-09T06:13:56.041Z,101994.25
2023-02-09T06:14:57.619Z,101992.09
2023-02-09T06:15:59.131Z,101997.47
2023-02-09T06:17:00.711Z,101994.72
2023-02-09T06:18:02.275Z,101989.69
2023-02-09T06:19:03.879Z,101992.59
2023-02-09T06:20:05.712Z,101992.59
2023-02-09T06:21:07.255Z,101989.53
2023-02-09T06:22:08.725Z,101989.38
2023-02-09T06:23:10.368Z,101991.97
2023-02-09T06:24:12.012Z,101997.47
2023-02-09T06:25:13.474Z,102001.81
2023-02-09T06:26:15.369Z,101995.31
2023-02-09T06:27:16.886Z,101994.16
2023-02-09T06:28:18.773Z,101986.78
2023-02-09T06:29:20.271Z,101997.19
2023-02-09T06:30:21.766Z,101998.22
2023-02-09T06:31:23.404Z,101998.06
2023-02-09T06:32:24.950Z,101994.16
2023-02-09T06:33:26.532Z,101988.97
2023-02-09T06:34:28.026Z,101992.75
2023-02-09T06:35:29.540Z,101993.59
2023-02-09T06:36:31.249Z,101990.53
2023-02-09T06:37:32.720Z,101998.63
2023-02-09T06:38:34.552Z,101994.84
2023-02-09T06:39:36.068Z,101997.47
2023-02-09T06:40:37.601Z,101992.84
2023-02-09T06:41:39.779Z,102001.63
2023-02-09T06:42:44.513Z,102000.75
2023-02-09T06:43:46.035Z,101995.97
2023-02-09T06:44:47.542Z,102004.03
2023-02-09T06:45:49.155Z,102011.25
2023-02-09T06:46:50.685Z,102004.03
2023-02-09T06:47:52.213Z,102000.59
2023-02-09T06:48:53.997Z,102004.03
2023-02-09T06:49:55.551Z,102005.78
2023-02-09T06:50:57.184Z,101996.53
2023-02-09T06:51:58.856Z,102003.72
2023-02-09T06:53:00.386Z,102009.22
2023-02-09T06:54:01.886Z,102000.91
2023-02-09T06:55:03.654Z,102008.97
2023-02-09T06:56:05.453Z,102015.31
2023-02-09T06:57:06.918Z,102019.78
2023-02-09T06:58:08.447Z,102018.78
2023-02-09T06:59:09.931Z,102025.97
2023-02-09T07:00:11.645Z,102024.09
2023-02-09T07:01:15.638Z,102027.69
2023-02-09T07:02:17.319Z,102012.13
2023-02-09T07:03:18.851Z,102015.72
2023-02-09T07:04:20.358Z,102022.06
2023-02-09T07:05:21.927Z,102025.66
2023-02-09T07:06:23.468Z,102021.91
2023-02-09T07:07:25.583Z,102025.38
2023-02-09T07:08:27.116Z,102031.72
2023-02-09T07:09:28.615Z,102030.72
2023-02-09T07:10:30.306Z,102028.84
2023-02-09T07:11:31.867Z,102030.56
2023-02-09T07:12:33.430Z,102032.28
2023-02-09T07:13:35.041Z,102031.25
2023-02-09T07:14:36.618Z,102027.50
2023-02-09T07:15:38.199Z,102031.97
2023-02-09T07:16:39.749Z,102029.94
2023-02-09T07:17:42.283Z,102034.38
2023-02-09T07:18:43.738Z,102009.94
2023-02-09T07:19:45.249Z,102036.84
2023-02-09T07:20:53.014Z,102033.09
2023-02-09T07:21:54.502Z,102040.28
2023-02-09T07:22:56.010Z,102035.66
2023-02-09T07:23:57.475Z,102036.53
2023-02-09T07:24:58.968Z,102036.38
2023-02-09T07:26:04.150Z,102033.63
2023-02-09T07:27:05.864Z,102039.97
2023-02-09T07:28:07.408Z,102039.97
2023-02-09T07:29:08.902Z,102036.38
2023-02-09T07:30:10.916Z,102038.97
2023-02-09T07:31:12.882Z,102035.19
2023-02-09T07:32:14.685Z,102037.94
2023-02-09T07:33:16.245Z,102043.44
2023-02-09T07:34:17.720Z,102039.66
2023-02-09T07:35:19.223Z,102036.75
2023-02-09T07:36:20.701Z,102037.63
2023-02-09T07:37:22.420Z,102037.63
2023-02-09T07:38:24.070Z,102041.09
2023-02-09T07:39:25.837Z,102025.56
2023-02-09T07:40:27.531Z,102047.84
2023-02-09T07:41:29.508Z,102025.78
2023-02-09T07:42:31.013Z,102048.63
2023-02-09T07:43:35.958Z,102050.28
2023-02-09T07:44:37.433Z,102049.22
2023-02-09T07:45:38.993Z,102052.56
2023-02-09T07:46:40.685Z,102051.28
2023-02-09T07:47:42.187Z,102050.88
2023-02-09T07:48:43.645Z,102044.09
2023-02-09T07:49:46.911Z,102042.66
2023-02-09T07:50:49.002Z,102041.06
2023-02-09T07:51:50.607Z,102031.88
2023-02-09T07:52:55.228Z,102036.59
2023-02-09T07:53:56.824Z,102031.03
2023-02-09T07:54:58.368Z,102038.31
2023-02-09T07:55:59.828Z,102029.41
2023-02-09T07:57:01.330Z,102040.44
2023-02-09T07:58:02.817Z,102039.09
2023-02-09T07:59:04.289Z,102047.41
2023-02-09T08:00:05.970Z,102044.84
2023-02-09T08:01:16.632Z,102047.59
2023-02-09T08:02:50.329Z,102042.25
2023-02-09T08:03:51.854Z,102043.63
2023-02-09T08:04:53.431Z,102038.41
2023-02-09T08:05:58.781Z,102037.69
2023-02-09T08:07:00.288Z,102033.84
2023-02-09T08:08:01.803Z,102029.47
2023-02-09T08:09:03.717Z,102045.81
2023-02-09T08:10:05.359Z,102040.59
2023-02-09T08:11:06.870Z,102049.16
2023-02-09T08:12:08.645Z,102040.28
2023-02-09T08:13:10.201Z,102038.81
2023-02-09T08:14:13.430Z,102049.28
2023-02-09T08:15:15.174Z,102047.81
2023-02-09T08:16:17.669Z,102054.25
2023-02-09T08:17:23.191Z,102050.00
2023-02-09T08:18:44.089Z,102049.56
2023-02-09T08:19:46.814Z,102052.13
2023-02-09T08:20:48.334Z,102048.72
2023-02-09T08:21:50.075Z,102042.72
2023-02-09T08:22:51.747Z,102049.97
2023-02-09T08:23:53.752Z,102046.94
2023-02-09T08:24:55.224Z,102055.81
2023-02-09T08:25:56.844Z,102044.63
2023-02-09T08:26:58.325Z,102044.47
2023-02-09T08:28:00.151Z,102040.81
2023-02-09T08:29:01.685Z,102043.09
2023-02-09T08:30:03.379Z,102032.63
2023-02-09T08:31:04.924Z,102037.03
2023-02-09T08:32:06.577Z,102035.06
2023-02-09T08:33:08.086Z,102039.53
2023-02-09T08:34:09.532Z,102038.31
2023-02-09T08:35:11.183Z,102044.81
2023-02-09T08:36:12.927Z,102038.94
2023-02-09T08:37:14.402Z,102038.59
2023-02-09T08:38:15.975Z,102045.31
2023-02-09T08:39:17.442Z,102044.50
2023-02-09T08:40:18.990Z,102047.81
2023-02-09T08:41:20.506Z,102044.47
2023-02-09T08:42:22.004Z,102044.09
2023-02-09T08:43:23.488Z,102051.88
2023-02-09T08:44:24.982Z,102049.38
2023-02-09T08:45:26.655Z,102049.19
2023-02-09T08:46:28.715Z,102039.19
2023-02-09T08:47:30.296Z,102042.66
2023-02-09T08:48:33.231Z,102038.88
2023-02-09T08:49:35.721Z,102036.78
2023-02-09T08:50:37.526Z,102034.63
2023-02-09T08:51:39.021Z,102036.16
2023-02-09T08:52:40.482Z,102032.97
2023-02-09T08:53:43.374Z,102040.69
2023-02-09T08:54:44.990Z,102041.97
2023-02-09T08:55:46.885Z,102035.75
2023-02-09T08:56:48.589Z,102044.31
2023-02-09T08:57:50.070Z,102044.75
2023-02-09T08:58:51.653Z,102045.00
2023-02-09T08:59:53.145Z,102046.69
2023-02-09T09:00:57.417Z,102038.97
2023-02-09T09:01:59.031Z,102038.53
2023-02-09T09:03:03.652Z,102040.28
2023-02-09T09:04:05.145Z,102041.97
2023-02-09T09:05:06.901Z,102038.97
2023-02-09T09:06:08.765Z,102044.31
2023-02-09T09:07:10.245Z,102050.97
2023-02-09T09:08:11.776Z,102046.69
2023-02-09T09:09:13.391Z,102043.88
2023-02-09T09:10:14.898Z,102047.06
2023-02-09T09:11:17.316Z,102043.47
2023-02-09T09:12:18.866Z,102047.97
2023-02-09T09:13:20.363Z,102051.41
2023-02-09T09:14:21.820Z,102053.56
2023-02-09T09:15:23.345Z,102049.72
2023-02-09T09:16:24.960Z,102052.28
2023-02-09T09:17:26.549Z,102052.72
2023-02-09T09:18:28.025Z,102050.13
2023-02-09T09:19:29.690Z,102047.94
2023-02-09T09:20:31.288Z,102049.66
2023-02-09T09:21:32.795Z,102043.63
2023-02-09T09:22:34.307Z,102050.50
2023-02-09T09:23:35.799Z,102040.78
2023-02-09T09:24:40.703Z,102048.63
2023-02-09T09:25:42.462Z,102053.00
2023-02-09T09:26:44.051Z,102035.44
2023-02-09T09:27:45.535Z,102045.06
2023-02-09T09:28:49.160Z,102049.50
2023-02-09T09:29:50.680Z,102043.63
2023-02-09T09:30:52.241Z,102044.19
2023-02-09T09:31:54.070Z,102046.66
2023-02-09T09:32:55.704Z,102044.25
2023-02-09T09:33:57.317Z,102032.25
2023-02-09T09:34:59.008Z,102030.38
2023-02-09T09:36:01.037Z,102037.03
2023-02-09T09:37:02.570Z,102029.22
2023-02-09T09:38:04.736Z,102028.03
2023-02-09T09:39:06.217Z,102031.53
2023-02-09T09:40:07.843Z,102036.91
2023-02-09T09:41:38.669Z,102039.31
2023-02-09T09:42:40.622Z,102037.88
2023-02-09T09:43:42.158Z,102039.66
2023-02-09T09:44:46.215Z,102041.91
2023-02-09T09:45:49.108Z,102036.06
2023-02-09T09:46:51.263Z,102034.50
2023-02-09T09:47:52.786Z,102031.91
2023-02-09T09:48:54.868Z,102036.13
2023-02-09T09:49:56.396Z,102038.22
2023-02-09T09:50:58.583Z,102043.25
2023-02-09T09:52:02.367Z,102039.19
2023-02-09T09:53:03.821Z,102039.06
2023-02-09T09:54:06.294Z,102036.34
2023-02-09T09:55:08.250Z,102041.94
2023-02-09T09:56:10.164Z,102033.78
2023-02-09T09:57:27.541Z,102040.03
2023-02-09T09:58:30.103Z,102033.31
2023-02-09T09:59:38.416Z,102028.81
2023-02-09T10:00:40.609Z,102041.81
2023-02-09T10:01:42.202Z,102032.34
2023-02-09T10:02:44.553Z,102036.03
2023-02-09T10:03:46.020Z,102028.47
2023-02-09T10:04:47.976Z,102026.78
2023-02-09T10:05:53.096Z,102029.13
2023-02-09T10:06:58.092Z,102028.06
2023-02-09T10:08:08.243Z,102033.22
2023-02-09T10:09:15.761Z,102034.22
2023-02-09T10:10:19.738Z,102033.16
2023-02-09T10:11:26.030Z,102026.81
2023-02-09T10:12:39.697Z,102031.63
2023-02-09T10:13:54.042Z,102031.47
2023-02-09T10:14:55.537Z,102032.09
2023-02-09T10:15:57.152Z,102029.13
2023-02-09T10:16:58.687Z,102036.13
2023-02-09T10:18:00.318Z,102030.66
2023-02-09T10:19:02.507Z,102022.88
2023-02-09T10:20:04.707Z,102029.75
2023-02-09T10:21:09.778Z,102026.19
2023-02-09T10:22:12.638Z,102018.41
2023-02-09T10:23:21.783Z,102012.94
2023-02-09T10:24:24.233Z,102015.59
2023-02-09T10:25:50.099Z,102015.28
2023-02-09T10:27:20.998Z,102007.97
2023-02-09T10:28:23.167Z,102017.03
2023-02-09T10:29:25.090Z,102016.06
2023-02-09T10:30:27.528Z,102016.59
2023-02-09T10:31:29.944Z,102024.59
2023-02-09T10:32:39.906Z,102028.59
2023-02-09T10:33:42.137Z,102019.94
2023-02-09T10:34:47.679Z,102020.25
2023-02-09T10:35:51.510Z,102020.75
2023-02-09T10:36:53.872Z,102008.94
2023-02-09T10:37:59.089Z,102022.31
2023-02-09T10:39:04.531Z,102017.88
2023-02-09T10:40:15.942Z,102021.81
2023-02-09T10:41:17.454Z,102030.22
2023-02-09T10:42:31.822Z,102030.97
2023-02-09T10:43:33.752Z,102030.22
2023-02-09T10:44:35.234Z,102032.25
2023-02-09T10:45:36.679Z,102037.63
2023-02-09T10:46:38.772Z,102032.84
2023-02-09T10:47:40.375Z,102017.47
2023-02-09T10:48:42.871Z,102025.84
2023-02-09T10:49:44.704Z,102013.81
2023-02-09T10:50:53.768Z,102014.19
2023-02-09T10:52:05.728Z,102021.81
2023-02-09T10:53:17.028Z,101999.56
2023-02-09T10:54:21.598Z,102009.94
2023-02-09T10:55:25.480Z,102014.34
2023-02-09T10:56:28.272Z,102010.88
2023-02-09T10:57:30.749Z,102010.44
2023-02-09T10:58:33.085Z,102014.13
2023-02-09T10:59:36.162Z,102016.59
2023-02-09T11:00:43.745Z,102011.00
2023-02-09T11:01:49.535Z,102000.53
2023-02-09T11:02:51.836Z,102006.75
2023-02-09T11:04:00.800Z,102007.50
2023-02-09T11:05:02.777Z,102003.31
2023-02-09T11:06:13.506Z,102004.06
2023-02-09T11:07:16.571Z,102012.72
2023-02-09T11:08:21.272Z,102002.25
2023-02-09T11:09:35.613Z,102003.28
2023-02-09T11:10:39.122Z,102011.94
2023-02-09T11:11:40.898Z,102005.44
2023-02-09T11:12:43.535Z,102007.09
2023-02-09T11:13:45.021Z,102003.84
2023-02-09T11:14:46.548Z,102010.25
2023-02-09T11:16:03.056Z,102003.63
2023-02-09T11:17:23.347Z,102006.53
2023-02-09T11:18:25.581Z,102007.22
2023-02-09T11:19:36.137Z,102008.22
2023-02-09T11:20:43.167Z,102002.09
2023-02-09T11:22:03.449Z,101995.16
2023-02-09T11:23:28.005Z,101997.00
2023-02-09T11:24:40.636Z,102000.66
2023-02-09T11:26:08.053Z,102003.66
2023-02-09T11:27:15.537Z,101992.53
2023-02-09T11:28:32.490Z,102007.06
2023-02-09T11:29:37.772Z,102008.44
2023-02-09T11:30:48.724Z,102012.47
2023-02-09T11:32:02.729Z,102005.78
2023-02-09T11:33:16.454Z,102009.69
2023-02-09T11:34:36.239Z,102005.19
2023-02-09T11:35:43.763Z,102002.22
2023-02-09T11:36:48.015Z,102011.09
2023-02-09T11:37:56.835Z,102000.63
2023-02-09T11:38:59.573Z,101999.53
2023-02-09T11:40:27.510Z,101990.56
2023-02-09T11:41:48.490Z,101999.66
2023-02-09T11:42:53.054Z,101992.34
2023-02-09T11:43:54.552Z,102006.13
2023-02-09T11:45:07.923Z,101989.66
2023-02-09T11:46:14.872Z,101994.63
2023-02-09T11:47:21.000Z,101992.31
2023-02-09T11:48:23.922Z,101985.78
2023-02-09T11:49:25.387Z,101987.72
2023-02-09T11:50:28.349Z,101980.81
2023-02-09T11:51:31.840Z,101989.81
2023-02-09T11:52:37.698Z,101991.94
2023-02-09T11:53:51.317Z,101991.38
2023-02-09T11:54:53.021Z,101983.47
2023-02-09T11:56:01.834Z,101985.09
2023-02-09T11:57:05.594Z,101980.34
2023-02-09T11:58:18.543Z,101982.81
2023-02-09T11:59:21.769Z,101979.91
2023-02-09T12:00:24.397Z,101979.22
2023-02-09T12:01:29.783Z,101980.41
2023-02-09T12:02:40.439Z,101976.81
2023-02-09T12:03:42.949Z,101977.66
2023-02-09T12:04:50.128Z,101982.81
2023-02-09T12:05:51.632Z,101986.16